Time;durP1;ratioP1;P1;durP2;ratioP2;P2;SDS_P1;SDS_P2;PMS_P1;PMS_P2;Temp;Humidity;BMP_temperature;BMP_pressure;BME280_temperature;BME280_humidity;BME280_pressure;Samples;Min_cycle;Max_cycle;Signal;HPM_P1;HPM_P2
2021/06/29 00:00:22;;;;;;;11.57;8.85;;;;;;;21.66;52.57;100056.44;3620846;39;20407;-51
2021/06/29 00:03:18;;;;;;;10.68;9.23;;;;;;;21.63;52.66;100047.84;3627934;39;20440;-47
2021/06/29 00:06:18;;;;;;;11.90;8.80;;;;;;;21.57;52.51;100042.06;3627018;39;20426;-49
2021/06/29 00:09:15;;;;;;;10.55;7.97;;;;;;;21.57;52.69;100034.06;3617409;39;20478;-47
2021/06/29 00:12:13;;;;;;;10.43;8.90;;;;;;;21.59;52.57;100029.44;3626697;39;20506;-49
2021/06/29 00:15:10;;;;;;;10.20;8.95;;;;;;;21.67;52.52;100035.94;3625779;39;20434;-50
2021/06/29 00:18:08;;;;;;;10.95;8.55;;;;;;;21.71;52.49;100027.53;3629443;39;20406;-49
2021/06/29 00:21:05;;;;;;;13.70;9.45;;;;;;;21.72;51.90;100020.38;3619328;39;20490;-47
2021/06/29 00:24:02;;;;;;;13.15;9.23;;;;;;;21.72;51.98;100023.88;3625492;39;20750;-49
2021/06/29 00:26:59;;;;;;;10.70;8.50;;;;;;;21.69;52.57;100025.97;3625873;39;20774;-47
2021/06/29 00:30:06;;;;;;;10.98;8.50;;;;;;;21.70;52.57;100030.34;3627730;39;20467;-49
2021/06/29 00:33:04;;;;;;;11.75;8.60;;;;;;;21.52;52.94;100035.47;3624352;39;20467;-49
2021/06/29 00:36:00;;;;;;;12.65;10.02;;;;;;;21.39;53.09;100027.66;3625096;39;20422;-47
2021/06/29 00:38:57;;;;;;;10.57;9.38;;;;;;;21.31;53.40;100024.84;3628495;39;20426;-49
2021/06/29 00:41:54;;;;;;;11.35;9.45;;;;;;;21.28;53.64;100025.94;3617392;39;20442;-50
2021/06/29 00:44:52;;;;;;;11.15;9.10;;;;;;;21.20;53.92;100022.19;3624901;39;20798;-48
2021/06/29 00:47:58;;;;;;;10.15;8.90;;;;;;;21.09;53.95;100020.47;3629256;39;20402;-48
2021/06/29 00:50:55;;;;;;;11.13;9.10;;;;;;;20.97;54.23;100021.50;3622338;39;20405;-49
2021/06/29 00:53:52;;;;;;;10.38;8.65;;;;;;;20.91;53.97;100022.88;3627481;39;20408;-51
2021/06/29 00:56:49;;;;;;;12.57;9.27;;;;;;;20.83;54.40;100020.03;3615702;39;20650;-50
2021/06/29 00:59:48;;;;;;;10.77;7.97;;;;;;;20.80;54.62;100014.94;3624277;39;20744;-50
2021/06/29 01:02:44;;;;;;;12.50;8.93;;;;;;;20.83;54.02;100020.03;3626937;39;20491;-47
2021/06/29 01:05:50;;;;;;;11.18;8.93;;;;;;;20.84;54.19;100021.72;3621745;39;20551;-48
2021/06/29 01:08:47;;;;;;;9.55;8.50;;;;;;;20.75;54.38;100024.31;3626197;39;20453;-47
2021/06/29 01:11:41;;;;;;;10.73;9.05;;;;;;;20.76;54.23;100026.84;3624218;39;20666;-50
2021/06/29 01:14:47;;;;;;;11.48;9.52;;;;;;;20.76;54.11;100023.31;3629251;39;20948;-53
2021/06/29 01:17:44;;;;;;;10.68;8.80;;;;;;;20.73;54.39;100026.25;3627619;39;20739;-50
2021/06/29 01:20:42;;;;;;;12.88;8.60;;;;;;;20.69;53.99;100028.34;3623556;39;20459;-50
2021/06/29 01:23:40;;;;;;;10.70;8.35;;;;;;;20.65;54.13;100027.75;3628924;39;20402;-48
2021/06/29 01:26:42;;;;;;;11.38;8.57;;;;;;;20.65;54.12;100021.56;3620967;39;20490;-49
2021/06/29 01:29:47;;;;;;;10.68;9.00;;;;;;;20.62;54.07;100022.69;3633017;39;20474;-43
2021/06/29 01:32:48;;;;;;;9.57;8.57;;;;;;;20.54;54.41;100024.28;3628738;39;20400;-44
2021/06/29 01:35:45;;;;;;;11.00;8.50;;;;;;;20.52;54.47;100010.25;3626317;39;20880;-47
2021/06/29 01:38:42;;;;;;;10.68;8.43;;;;;;;20.53;54.84;100019.94;3628465;39;20895;-44
2021/06/29 01:41:40;;;;;;;10.43;9.32;;;;;;;20.41;54.87;100019.16;3620275;39;20422;-45
2021/06/29 01:44:37;;;;;;;11.20;9.50;;;;;;;20.22;55.72;100010.94;3628101;39;20417;-46
2021/06/29 01:47:40;;;;;;;11.27;9.18;;;;;;;20.13;55.82;100006.38;3625907;39;20482;-45
2021/06/29 01:50:36;;;;;;;11.55;9.15;;;;;;;20.02;56.30;100007.25;3625555;31;20741;-45
2021/06/29 01:53:34;;;;;;;11.45;9.75;;;;;;;19.93;56.55;99994.69;3627038;39;20426;-45
2021/06/29 01:56:34;;;;;;;12.00;9.02;;;;;;;19.90;56.40;100002.91;3620937;39;20855;-45
2021/06/29 01:59:32;;;;;;;10.98;8.70;;;;;;;19.84;56.54;99998.09;3625617;39;20416;-46
2021/06/29 02:02:29;;;;;;;12.77;10.00;;;;;;;19.84;56.82;99992.78;3627481;39;20405;-44
2021/06/29 02:05:26;;;;;;;11.68;9.65;;;;;;;19.86;56.57;99996.16;3630178;39;20434;-43
2021/06/29 02:08:24;;;;;;;9.85;8.60;;;;;;;19.83;56.92;99999.91;3627848;39;20404;-44
2021/06/29 02:11:30;;;;;;;12.52;9.55;;;;;;;19.74;57.07;99997.97;3624061;39;20416;-43
2021/06/29 02:14:27;;;;;;;11.27;9.00;;;;;;;19.70;57.21;99994.72;3625474;39;20804;-44
2021/06/29 02:17:24;;;;;;;12.10;9.18;;;;;;;19.72;57.51;99990.13;3626083;39;20481;-43
2021/06/29 02:20:21;;;;;;;12.15;9.43;;;;;;;19.79;57.03;99994.00;3623683;39;20489;-46
2021/06/29 02:23:19;;;;;;;12.15;9.32;;;;;;;19.82;56.86;99989.41;3627050;39;20384;-43
2021/06/29 02:26:17;;;;;;;12.00;10.00;;;;;;;19.72;57.26;99991.94;3621566;39;20419;-44
2021/06/29 02:29:14;;;;;;;13.10;9.73;;;;;;;19.70;57.03;99989.41;3625718;39;20668;-44
2021/06/29 02:32:11;;;;;;;12.70;9.82;;;;;;;19.65;57.43;99988.09;3627147;39;20844;-43
2021/06/29 02:35:10;;;;;;;17.17;9.90;;;;;;;19.55;57.49;99981.81;3623684;39;20825;-45
2021/06/29 02:38:06;;;;;;;11.63;8.82;;;;;;;19.52;57.93;99982.03;3625243;39;20478;-44
2021/06/29 02:41:04;;;;;;;12.75;9.95;;;;;;;19.59;57.71;99989.44;3623789;39;20762;-43
2021/06/29 02:44:11;;;;;;;11.57;9.13;;;;;;;19.69;57.57;99994.84;3626761;39;20510;-42
2021/06/29 02:47:08;;;;;;;14.68;9.43;;;;;;;19.69;57.15;99984.22;3629181;31;20402;-43
2021/06/29 02:50:08;;;;;;;14.40;9.57;;;;;;;19.64;57.34;99991.72;3624964;39;20409;-45
2021/06/29 02:53:06;;;;;;;12.73;10.15;;;;;;;19.67;57.42;99984.34;3627071;39;20449;-42
2021/06/29 02:56:03;;;;;;;14.38;9.75;;;;;;;19.71;57.17;99983.13;3619487;39;20410;-44
2021/06/29 02:59:01;;;;;;;12.77;8.75;;;;;;;19.77;57.01;99977.28;3627793;39;20446;-43
2021/06/29 03:01:58;;;;;;;11.32;8.73;;;;;;;19.78;57.24;99987.00;3625881;39;20413;-44
2021/06/29 03:04:52;;;;;;;10.73;9.38;;;;;;;19.79;57.60;99995.81;3632911;39;20510;-45
2021/06/29 03:07:50;;;;;;;12.60;9.02;;;;;;;19.90;57.38;99992.28;3626512;39;20393;-44
2021/06/29 03:10:47;;;;;;;11.68;9.27;;;;;;;19.88;57.50;99989.75;3625837;39;20400;-44
2021/06/29 03:13:41;;;;;;;13.00;9.75;;;;;;;19.79;57.19;99994.00;3632993;39;20424;-45
2021/06/29 03:16:47;;;;;;;13.65;10.20;;;;;;;19.72;57.61;99995.44;3625160;39;20528;-44
2021/06/29 03:19:44;;;;;;;15.05;9.90;;;;;;;19.82;57.84;99984.94;3628498;39;20463;-44
2021/06/29 03:22:42;;;;;;;12.50;9.65;;;;;;;19.92;57.47;99985.00;3625352;39;20465;-44
2021/06/29 03:25:39;;;;;;;15.45;12.43;;;;;;;19.97;57.23;99985.47;3622490;39;20398;-43
2021/06/29 03:28:33;;;;;;;11.75;9.63;;;;;;;19.94;57.10;99980.41;3632300;39;20504;-42
2021/06/29 03:31:31;;;;;;;13.10;10.70;;;;;;;19.93;57.16;99981.38;3623798;39;20510;-43
2021/06/29 03:34:28;;;;;;;11.95;9.50;;;;;;;19.95;57.18;99976.78;3624334;39;20473;-43
2021/06/29 03:37:25;;;;;;;11.55;9.48;;;;;;;19.99;57.22;99986.19;3626522;39;20411;-44
2021/06/29 03:40:23;;;;;;;16.65;9.55;;;;;;;20.03;56.95;99977.84;3620618;39;20686;-45
2021/06/29 03:43:20;;;;;;;12.13;9.15;;;;;;;20.06;56.95;99976.75;3625333;39;20408;-44
2021/06/29 03:46:14;;;;;;;12.05;9.65;;;;;;;20.13;57.19;99990.41;3628917;39;20503;-44
2021/06/29 03:49:12;;;;;;;12.90;9.88;;;;;;;20.14;56.72;99990.25;3626098;39;20416;-44
2021/06/29 03:52:06;;;;;;;13.38;9.70;;;;;;;20.12;56.80;99986.88;3635105;39;20874;-44
2021/06/29 03:55:04;;;;;;;11.20;8.82;;;;;;;20.22;56.76;99994.97;3623957;39;20492;-45
2021/06/29 03:58:01;;;;;;;9.38;8.38;;;;;;;20.29;56.83;99990.81;3627981;39;20655;-44
2021/06/29 04:00:58;;;;;;;12.95;9.82;;;;;;;20.39;56.03;99984.59;3629761;39;20440;-46
2021/06/29 04:03:57;;;;;;;10.07;7.88;;;;;;;20.44;55.78;99986.09;3626647;39;20387;-45
2021/06/29 04:06:54;;;;;;;12.18;8.75;;;;;;;20.46;55.84;99984.16;3629146;39;20457;-47
2021/06/29 04:09:50;;;;;;;10.85;8.95;;;;;;;20.56;55.83;99990.38;3627570;39;20408;-44
2021/06/29 04:12:48;;;;;;;11.93;8.35;;;;;;;20.70;55.43;99998.06;3628656;39;20407;-45
2021/06/29 04:15:45;;;;;;;12.80;8.77;;;;;;;21.28;54.95;99995.78;3621435;39;20518;-46
2021/06/29 04:18:44;;;;;;;10.98;7.75;;;;;;;22.74;52.75;99989.72;3630041;39;20403;-45
2021/06/29 04:21:42;;;;;;;9.85;8.02;;;;;;;24.20;50.13;99983.66;3622497;39;20412;-46
2021/06/29 04:24:39;;;;;;;9.38;7.28;;;;;;;25.05;47.52;99986.72;3623738;39;20490;-46
2021/06/29 04:27:37;;;;;;;9.88;7.35;;;;;;;25.32;46.22;99983.03;3624719;39;20709;-47
2021/06/29 04:30:33;;;;;;;9.32;7.05;;;;;;;25.33;45.98;99985.53;3628909;39;20441;-45
2021/06/29 04:33:34;;;;;;;8.88;7.38;;;;;;;25.27;46.02;99988.88;3632579;39;20880;-45
2021/06/29 04:36:39;;;;;;;9.93;7.22;;;;;;;25.44;45.54;99984.44;3623369;39;20434;-44
2021/06/29 04:39:36;;;;;;;9.95;7.70;;;;;;;25.58;45.20;99983.81;3626620;39;20401;-46
2021/06/29 04:42:34;;;;;;;8.70;7.82;;;;;;;25.51;44.74;99988.16;3624972;31;20401;-45
2021/06/29 04:45:31;;;;;;;10.43;6.95;;;;;;;25.37;44.78;99978.00;3625158;39;20498;-47
2021/06/29 04:48:28;;;;;;;10.32;7.35;;;;;;;25.26;44.35;99984.50;3628292;39;20699;-46
2021/06/29 04:51:26;;;;;;;11.40;7.13;;;;;;;25.22;44.46;99981.31;3621953;39;20413;-46
2021/06/29 04:54:25;;;;;;;9.00;6.78;;;;;;;25.16;44.38;99987.28;3632463;39;20523;-45
2021/06/29 04:57:22;;;;;;;10.35;7.80;;;;;;;25.04;45.00;99987.75;3627537;39;20486;-45
2021/06/29 05:00:20;;;;;;;9.35;7.20;;;;;;;25.02;44.81;99982.53;3621962;31;20416;-43
2021/06/29 05:03:19;;;;;;;12.27;7.60;;;;;;;24.94;44.78;99980.59;3625386;39;20404;-46
2021/06/29 05:06:16;;;;;;;10.65;6.47;;;;;;;24.85;44.65;99976.19;3620537;39;20826;-47
2021/06/29 05:09:13;;;;;;;7.90;6.70;;;;;;;24.87;44.54;99976.03;3626045;39;20421;-46
2021/06/29 05:12:11;;;;;;;9.40;6.60;;;;;;;24.86;44.49;99977.03;3626379;39;20449;-52
2021/06/29 05:15:11;;;;;;;9.02;6.68;;;;;;;24.81;44.69;99982.88;3621805;39;20753;-46
2021/06/29 05:18:09;;;;;;;7.50;6.55;;;;;;;24.92;44.50;99981.75;3627359;39;20437;-45
2021/06/29 05:21:06;;;;;;;9.82;6.75;;;;;;;24.99;44.50;99985.53;3620744;39;20402;-44
2021/06/29 05:24:04;;;;;;;9.88;6.90;;;;;;;25.09;44.65;99986.25;3629538;39;20506;-47
2021/06/29 05:27:01;;;;;;;13.73;6.88;;;;;;;25.15;44.08;99972.19;3626964;39;20401;-52
2021/06/29 05:29:59;;;;;;;10.15;5.93;;;;;;;25.24;44.15;99975.78;3629559;39;20491;-52
2021/06/29 05:32:56;;;;;;;6.22;5.57;;;;;;;25.41;43.49;99969.50;3625868;39;20401;-53
2021/06/29 05:35:54;;;;;;;9.90;5.88;;;;;;;25.55;43.19;99962.66;3622779;39;20656;-54
2021/06/29 05:38:52;;;;;;;11.32;6.40;;;;;;;25.62;43.14;99957.50;3628405;39;20381;-54
2021/06/29 05:41:49;;;;;;;9.60;5.88;;;;;;;25.68;42.83;99955.03;3616194;39;20398;-51
2021/06/29 05:44:47;;;;;;;8.80;5.55;;;;;;;25.84;42.60;99951.56;3625583;39;20490;-54
2021/06/29 05:47:46;;;;;;;10.52;6.78;;;;;;;25.99;42.50;99954.44;3627763;39;20428;-53
2021/06/29 05:50:48;;;;;;;6.93;5.65;;;;;;;26.13;42.31;99956.47;3630711;39;20671;-53
2021/06/29 05:53:45;;;;;;;5.93;4.78;;;;;;;26.26;41.97;99956.84;3629870;39;20664;-54
2021/06/29 05:56:44;;;;;;;8.80;5.38;;;;;;;26.40;41.67;99963.41;3619710;39;20760;-54
2021/06/29 05:59:41;;;;;;;8.23;5.07;;;;;;;26.53;41.64;99949.47;3625603;39;20843;-53
2021/06/29 06:02:38;;;;;;;9.05;5.57;;;;;;;26.61;41.48;99944.09;3627971;39;20445;-51
2021/06/29 06:05:35;;;;;;;5.95;5.03;;;;;;;26.71;40.82;99944.75;3623707;39;20812;-52
2021/06/29 06:08:33;;;;;;;7.18;4.85;;;;;;;26.82;40.68;99947.09;3628069;39;20723;-51
2021/06/29 06:11:30;;;;;;;8.70;5.05;;;;;;;26.95;40.20;99955.47;3620405;31;20417;-55
2021/06/29 06:14:28;;;;;;;7.43;5.30;;;;;;;27.14;40.51;99956.16;3625685;39;20407;-55
2021/06/29 06:17:27;;;;;;;8.50;5.35;;;;;;;27.57;40.18;99957.50;3627231;39;20402;-54
2021/06/29 06:20:24;;;;;;;5.55;4.60;;;;;;;28.34;39.45;99947.66;3623115;39;20820;-53
2021/06/29 06:23:23;;;;;;;5.28;4.32;;;;;;;29.25;38.08;99949.31;3636026;31;20428;-52
2021/06/29 06:26:20;;;;;;;7.93;4.65;;;;;;;30.18;36.49;99947.75;3622872;39;20416;-51
2021/06/29 06:29:18;;;;;;;15.73;4.10;;;;;;;31.05;34.92;99939.38;3630772;39;21370;-52
2021/06/29 06:32:15;;;;;;;6.00;4.38;;;;;;;31.98;33.76;99938.78;3626922;39;20453;-51
2021/06/29 06:35:13;;;;;;;4.70;3.60;;;;;;;33.15;31.42;99940.09;3622444;39;20439;-51
2021/06/29 06:38:08;;;;;;;4.45;3.38;;;;;;;34.70;29.92;99945.13;3633482;39;20492;-54
2021/06/29 06:41:14;;;;;;;6.05;3.78;;;;;;;36.64;27.25;99941.44;3625095;39;20821;-56
2021/06/29 06:44:07;;;;;;;5.40;3.90;;;;;;;38.32;25.04;99934.06;3633296;39;20430;-53
2021/06/29 06:47:06;;;;;;;4.30;3.60;;;;;;;39.81;23.36;99941.44;3627254;39;20482;-55
2021/06/29 06:50:04;;;;;;;3.83;3.25;;;;;;;41.18;21.52;99940.94;3625232;39;20851;-56
2021/06/29 06:52:43;;;;;;;4.35;3.15;;;;;;;42.31;19.52;99943.81;3255415;39;15108297;-58
2021/06/29 06:55:40;;;;;;;3.72;3.33;;;;;;;43.31;17.79;99945.91;3623537;31;20406;-58
2021/06/29 06:58:37;;;;;;;3.47;3.17;;;;;;;44.24;16.44;99953.44;3628052;39;20429;-57
2021/06/29 07:01:37;;;;;;;4.40;3.40;;;;;;;45.01;15.25;99943.34;3618541;39;20722;-43
2021/06/29 07:04:35;;;;;;;3.10;2.70;;;;;;;45.27;14.17;99946.66;3624614;39;20408;-40
2021/06/29 07:07:29;;;;;;;3.50;3.20;;;;;;;45.34;14.43;99946.31;3631934;31;20427;-40
2021/06/29 07:10:27;;;;;;;7.30;5.97;;;;;;;45.53;14.16;99942.44;3620881;39;20412;-44
2021/06/29 07:13:21;;;;;;;3.30;2.88;;;;;;;45.60;13.32;99942.88;3629938;39;20689;-41
2021/06/29 07:16:20;;;;;;;3.17;2.83;;;;;;;45.68;12.73;99946.16;3620887;39;20830;-42
2021/06/29 07:19:14;;;;;;;4.95;3.38;;;;;;;45.75;12.94;99944.66;3633141;39;20424;-42
2021/06/29 07:21:54;;;;;;;4.93;3.30;;;;;;;45.75;13.43;99941.06;3620797;39;20437;-43
2021/06/29 07:24:35;;;;;;;5.43;3.30;;;;;;;46.04;13.13;99936.25;3640089;39;20689;-40
2021/06/29 07:27:16;;;;;;;4.38;3.13;;;;;;;46.31;12.99;99943.00;3619754;39;20416;-43
2021/06/29 07:29:57;;;;;;;5.22;4.28;;;;;;;46.46;12.94;99940.00;3637410;39;20403;-42
2021/06/29 07:32:41;;;;;;;3.67;3.15;;;;;;;46.69;12.49;99941.78;3609664;39;20459;-42
2021/06/29 07:35:22;;;;;;;3.58;3.22;;;;;;;46.95;11.73;99944.09;3622905;39;20437;-44
2021/06/29 07:38:02;;;;;;;4.88;3.60;;;;;;;47.08;11.40;99940.53;3620020;39;20831;-44
2021/06/29 18:57:33;;;;;;;13.88;9.70;;;;;;;26.08;32.32;99534.41;3612974;39;20446;-62
2021/06/29 19:00:18;;;;;;;16.17;11.38;;;;;;;26.37;33.54;99536.47;3627722;39;20843;-60
2021/06/29 19:03:00;;;;;;;10.15;7.80;;;;;;;26.58;33.79;99533.97;3641390;39;20436;-49
2021/06/29 19:05:41;;;;;;;10.68;8.48;;;;;;;26.69;34.13;99536.25;3634716;39;20691;-59
2021/06/29 19:08:23;;;;;;;13.05;9.07;;;;;;;26.74;34.59;99531.16;3642123;39;20474;-62
2021/06/29 19:11:05;;;;;;;8.38;7.10;;;;;;;26.80;34.57;99526.06;3629186;39;20440;-62
2021/06/29 19:13:46;;;;;;;10.25;6.75;;;;;;;26.83;35.14;99528.41;3612161;39;20765;-56
2021/06/29 19:16:29;;;;;;;7.90;6.10;;;;;;;26.83;34.70;99534.63;3594200;39;1577072;-50
2021/06/29 19:19:13;;;;;;;9.27;5.50;;;;;;;26.88;35.11;99537.63;3623243;39;20519;-55
2021/06/29 19:21:54;;;;;;;7.50;5.85;;;;;;;26.94;35.01;99539.56;3629606;39;20759;-51
2021/06/29 19:24:35;;;;;;;7.90;5.25;;;;;;;26.94;35.21;99536.06;3613100;39;20446;-54
2021/06/29 19:27:15;;;;;;;7.10;4.70;;;;;;;26.90;35.62;99529.38;3591190;39;1839164;-58
2021/06/29 19:29:54;;;;;;;7.93;5.28;;;;;;;27.00;35.43;99533.50;3638998;39;20432;-59
2021/06/29 19:32:35;;;;;;;5.70;5.10;;;;;;;27.03;35.16;99538.50;3608718;39;20455;-56
2021/06/29 19:35:17;;;;;;;5.90;4.68;;;;;;;27.06;35.66;99539.16;3637465;39;20697;-59
2021/06/29 19:38:02;;;;;;;7.40;5.47;;;;;;;27.07;35.63;99541.69;3617094;39;20425;-52
2021/06/29 19:40:42;;;;;;;7.03;6.30;;;;;;;27.11;35.60;99536.78;3599119;39;1485704;-54
2021/06/29 19:43:21;;;;;;;10.68;6.82;;;;;;;27.14;35.74;99533.72;3640462;39;20420;-60
2021/06/29 19:46:01;;;;;;;9.23;6.68;;;;;;;27.12;35.84;99533.06;3634010;39;20416;-61
2021/06/29 19:48:41;;;;;;;8.50;6.30;;;;;;;27.09;36.36;99525.38;3636307;39;20446;-61
2021/06/29 19:51:22;;;;;;;9.75;5.93;;;;;;;27.11;36.30;99526.03;3605604;39;20698;-62
2021/06/29 19:54:04;;;;;;;9.48;5.03;;;;;;;27.06;36.50;99528.41;3621492;39;20390;-61
2021/06/29 19:56:46;;;;;;;7.78;5.10;;;;;;;27.03;36.61;99535.81;3606819;31;20454;-62
2021/06/29 19:59:27;;;;;;;7.47;5.60;;;;;;;27.02;36.61;99530.63;3641428;39;20855;-60
2021/06/29 20:02:06;;;;;;;6.95;4.78;;;;;;;26.97;36.45;99525.75;3611122;39;20828;-61
2021/06/29 20:04:46;;;;;;;8.25;5.50;;;;;;;26.93;36.70;99529.84;3640510;39;20438;-61
2021/06/29 20:07:28;;;;;;;7.82;5.55;;;;;;;26.91;36.60;99523.81;3634042;39;20511;-59
2021/06/29 20:10:13;;;;;;;7.25;6.20;;;;;;;26.88;36.96;99524.19;3610764;39;20672;-61
2021/06/29 20:12:54;;;;;;;7.22;5.80;;;;;;;26.84;36.82;99527.38;3611989;39;20856;-61
2021/06/29 20:15:35;;;;;;;10.50;6.53;;;;;;;26.72;37.00;99521.59;3619496;39;20839;-59
2021/06/29 20:18:17;;;;;;;10.68;7.15;;;;;;;26.65;37.40;99531.38;3615639;39;20439;-54
2021/06/29 20:20:56;;;;;;;8.50;6.45;;;;;;;26.60;37.15;99526.56;3632173;39;20182;-55
2021/06/29 20:23:39;;;;;;;8.13;6.00;;;;;;;26.55;37.50;99525.44;3611765;39;20469;-60
2021/06/29 20:26:19;;;;;;;10.45;6.60;;;;;;;26.46;37.51;99515.75;3619767;39;20425;-59
2021/06/29 20:29:00;;;;;;;9.13;6.10;;;;;;;26.33;37.86;99521.69;3614461;39;20486;-62
2021/06/29 20:31:43;;;;;;;9.68;6.55;;;;;;;26.26;38.23;99521.56;3615810;39;20426;-62
2021/06/29 20:34:23;;;;;;;9.57;6.95;;;;;;;26.27;38.52;99512.50;3611084;39;20465;-58
2021/06/29 20:37:04;;;;;;;9.38;5.63;;;;;;;26.19;38.55;99509.84;3642908;39;20821;-52
2021/06/29 20:39:45;;;;;;;7.13;5.40;;;;;;;26.14;39.02;99512.22;3603500;39;20448;-62
2021/06/29 20:42:24;;;;;;;8.50;5.53;;;;;;;26.14;39.67;99507.69;3634429;39;20675;-61
2021/06/29 20:45:06;;;;;;;6.55;5.28;;;;;;;26.12;39.95;99515.09;3641817;39;20448;-51
2021/06/29 20:47:45;;;;;;;7.15;5.03;;;;;;;26.06;40.09;99512.28;3642801;39;20440;-54
2021/06/29 20:50:28;;;;;;;8.07;5.30;;;;;;;26.04;40.40;99508.94;3642626;39;20430;-53
2021/06/29 20:53:15;;;;;;;8.85;5.63;;;;;;;26.03;40.39;99509.94;3624057;39;20484;-54
2021/06/29 20:55:54;;;;;;;8.13;4.78;;;;;;;25.98;40.48;99507.75;3417431;39;8271444;-51
2021/06/29 20:58:35;;;;;;;7.15;5.15;;;;;;;25.93;40.74;99503.94;3639582;39;20395;-48
2021/06/29 21:01:15;;;;;;;8.27;5.38;;;;;;;25.89;40.76;99500.78;3637421;39;20428;-47
2021/06/29 21:03:57;;;;;;;8.30;5.85;;;;;;;25.83;40.82;99498.78;3640615;39;20433;-52
2021/06/29 21:06:46;;;;;;;6.43;4.88;;;;;;;25.75;40.62;99491.59;3619547;39;20784;-53
2021/06/29 21:09:27;;;;;;;7.05;5.43;;;;;;;25.70;40.89;99496.66;3635968;39;20445;-53
2021/06/29 21:12:09;;;;;;;7.55;5.38;;;;;;;25.69;40.77;99494.97;3630537;39;20843;-53
2021/06/29 21:14:50;;;;;;;8.98;4.90;;;;;;;25.70;40.48;99493.97;3634713;39;20115;-53
2021/06/29 21:17:30;;;;;;;7.63;4.90;;;;;;;25.70;39.93;99495.81;3620320;39;20437;-51
2021/06/29 21:20:13;;;;;;;9.65;4.78;;;;;;;25.69;39.88;99497.66;3640351;39;20453;-48
2021/06/29 21:22:53;;;;;;;8.20;5.28;;;;;;;25.69;39.79;99504.88;3641790;39;20426;-51
2021/06/29 21:25:33;;;;;;;5.90;4.25;;;;;;;25.69;39.39;99503.03;3610267;39;20682;-51
2021/06/29 21:28:13;;;;;;;7.13;4.68;;;;;;;25.67;39.12;99499.69;3624550;39;20439;-53
2021/06/29 21:30:53;;;;;;;6.00;4.30;;;;;;;25.68;38.98;99497.84;3638547;39;20435;-51
2021/06/29 21:33:35;;;;;;;5.28;4.30;;;;;;;25.68;38.86;99490.63;3630201;39;20518;-54
2021/06/29 21:36:16;;;;;;;5.43;4.70;;;;;;;25.67;38.65;99488.94;3612841;39;20439;-50
2021/06/29 21:38:57;;;;;;;6.38;4.60;;;;;;;25.64;38.68;99497.31;3638957;39;20424;-54
2021/06/29 21:41:37;;;;;;;5.90;4.72;;;;;;;25.59;38.58;99490.78;3631701;39;20449;-50
2021/06/29 21:44:16;;;;;;;6.53;4.97;;;;;;;25.50;38.84;99498.88;3641935;39;20427;-51
2021/06/29 21:46:56;;;;;;;8.20;5.53;;;;;;;25.39;39.31;99491.19;3640281;39;20436;-53
2021/06/29 21:49:36;;;;;;;8.05;5.00;;;;;;;25.33;39.45;99496.41;3641569;39;20461;-52
2021/06/29 21:52:16;;;;;;;9.38;5.60;;;;;;;25.25;39.89;99486.53;3640889;39;20689;-47
2021/06/29 21:54:56;;;;;;;6.85;5.22;;;;;;;25.14;39.97;99493.09;3619274;39;20614;-52
2021/06/29 21:57:35;;;;;;;10.48;5.65;;;;;;;25.06;40.35;99497.63;3639276;39;20420;-51
2021/06/29 22:00:18;;;;;;;7.03;5.53;;;;;;;24.92;40.67;99493.75;3640633;39;20434;-50
2021/06/29 22:02:58;;;;;;;7.55;6.10;;;;;;;24.66;41.23;99496.63;3613457;39;20853;-52
2021/06/29 22:05:38;;;;;;;10.00;6.78;;;;;;;24.51;41.84;99490.25;3636398;39;20436;-52
2021/06/29 22:08:18;;;;;;;13.40;6.97;;;;;;;24.41;42.38;99489.56;3634578;39;20451;-51
2021/06/29 22:10:59;;;;;;;7.93;5.80;;;;;;;24.41;42.15;99487.72;3633962;39;20443;-49
2021/06/29 22:13:39;;;;;;;10.57;5.75;;;;;;;24.24;42.87;99489.50;3635916;39;20416;-51
2021/06/29 22:16:19;;;;;;;7.68;6.45;;;;;;;24.02;43.80;99480.25;3634748;39;20432;-52
2021/06/29 22:18:59;;;;;;;8.13;6.00;;;;;;;23.92;44.33;99484.06;3641262;39;20436;-53
2021/06/29 22:21:39;;;;;;;9.38;6.50;;;;;;;23.94;44.21;99477.53;3616270;39;20438;-48
2021/06/29 22:24:20;;;;;;;11.50;6.07;;;;;;;23.94;44.62;99482.91;3617195;39;21015;-50
2021/06/29 22:27:00;;;;;;;9.48;6.80;;;;;;;23.95;44.64;99494.47;3618902;39;20708;-54
2021/06/29 22:29:39;;;;;;;9.30;6.18;;;;;;;23.92;45.04;99490.25;3619364;39;20446;-54
2021/06/29 22:32:19;;;;;;;8.07;6.25;;;;;;;23.84;45.46;99490.25;3620566;39;20425;-52
2021/06/29 22:34:59;;;;;;;9.57;6.50;;;;;;;23.80;45.42;99491.56;3638357;39;20381;-53
2021/06/29 22:37:39;;;;;;;9.98;6.85;;;;;;;23.69;46.05;99481.13;3617244;39;20418;-54
2021/06/29 22:40:19;;;;;;;8.68;6.90;;;;;;;23.70;46.32;99480.13;3650756;39;20450;-51
2021/06/29 22:42:59;;;;;;;12.32;7.28;;;;;;;23.65;45.96;99491.34;3640554;39;20683;-51
2021/06/29 22:45:41;;;;;;;8.43;5.88;;;;;;;23.59;46.39;99480.44;3643502;39;20752;-49
2021/06/29 22:48:21;;;;;;;7.57;6.50;;;;;;;23.47;46.75;99477.16;3618662;39;20693;-54
2021/06/29 22:51:01;;;;;;;7.43;6.03;;;;;;;23.39;47.09;99474.47;3618529;39;20442;-52
2021/06/29 22:53:41;;;;;;;10.52;6.30;;;;;;;23.36;46.70;99462.25;3641575;39;20426;-53
2021/06/29 22:56:22;;;;;;;7.53;6.05;;;;;;;23.31;47.42;99459.19;3638888;39;20438;-54
2021/06/29 22:59:02;;;;;;;8.75;5.93;;;;;;;23.29;47.11;99450.50;3638454;39;20432;-52
2021/06/29 23:01:43;;;;;;;8.48;6.00;;;;;;;23.28;46.59;99435.44;3637477;39;20439;-52
2021/06/29 23:04:22;;;;;;;7.28;6.15;;;;;;;23.27;46.38;99436.44;3622655;39;20433;-53
2021/06/29 23:07:04;;;;;;;8.55;6.55;;;;;;;23.21;46.46;99426.41;3639234;39;20454;-54
2021/06/29 23:09:43;;;;;;;10.95;6.40;;;;;;;23.18;46.48;99426.72;3619711;39;20454;-56
2021/06/29 23:12:23;;;;;;;7.20;5.97;;;;;;;23.12;46.65;99422.03;3614175;39;20444;-54
2021/06/29 23:19:47;;;;;;;6.80;5.78;;;;;;;22.91;46.77;99426.91;3611972;39;20086;-55
2021/06/29 23:22:28;;;;;;;9.18;6.30;;;;;;;22.77;47.47;99417.59;3626369;39;20576;-54
2021/06/29 23:25:08;;;;;;;7.20;6.35;;;;;;;22.74;47.36;99421.41;3638342;39;20707;-56
2021/06/29 23:27:49;;;;;;;7.28;6.35;;;;;;;22.67;47.85;99422.19;3639952;39;20432;-54
2021/06/29 23:30:28;;;;;;;6.90;6.03;;;;;;;22.51;48.09;99422.91;3618147;39;20481;-54
2021/06/29 23:33:08;;;;;;;7.97;5.88;;;;;;;22.48;48.84;99423.19;3618690;39;21221;-52
2021/06/29 23:35:48;;;;;;;7.72;5.90;;;;;;;22.60;48.50;99411.28;3618082;39;20680;-52
2021/06/29 23:38:28;;;;;;;10.18;6.95;;;;;;;22.65;48.51;99408.13;3608517;39;20462;-50
2021/06/29 23:41:08;;;;;;;9.90;6.35;;;;;;;22.61;47.94;99412.13;3612308;39;20468;-51
2021/06/29 23:43:47;;;;;;;8.05;5.97;;;;;;;22.65;48.35;99403.63;3620018;39;20429;-52
2021/06/29 23:46:28;;;;;;;7.32;5.80;;;;;;;22.66;47.73;99402.63;3618069;39;20495;-53
2021/06/29 23:49:07;;;;;;;9.30;6.18;;;;;;;22.68;47.66;99402.47;3612407;39;20671;-54
2021/06/29 23:51:47;;;;;;;9.07;6.47;;;;;;;22.74;47.53;99392.03;3641337;39;20422;-52
2021/06/29 23:54:27;;;;;;;6.65;5.18;;;;;;;22.77;47.53;99381.00;3619184;39;20435;-57
2021/06/29 23:57:07;;;;;;;7.75;5.95;;;;;;;22.70;48.14;99373.81;3639455;39;20866;-53
2021/06/29 23:59:46;;;;;;;7.28;6.10;;;;;;;22.66;47.94;99378.59;3641242;39;20473;-53
